Tullinge, Sweden

11:39 AM CEST on August 28, 2015 (GMT +0200)
Huddinge | | Change Station
CLOSE
Current Station
Personal Weather Station
Location: Stockholm, SE
Elevation: 125 ft
Nearby Weather Stations

Elev 125 ft 59.23 °N, 17.96 °E | Updated 4 minutes ago

Scattered Clouds
Scattered Clouds
72.5 °F
Feels Like 76 °F
N
0.0
Wind Variable Wind from North
Gusts 4.5 mph

Today
High -- | Low -- °F
--% Chance of Precip.
Yesterday
High -- | Low -- °F
Precip. -- in
5:35 AM 8:02 PM
Waxing Gibbous, 97% visible
Pressure 29.68 in
Visibility 6.2 miles
Clouds Scattered Clouds 2700 ft
Heat Index 76 °F
Dew Point 58 °F
Humidity 61%
Rainfall 0.00 in
Snow Depth Not available.
UV 4 out of 12
Pollen Not available.
Air Quality Not available.
Flu Activity Not available.
METAR ESSB 280920Z 24014KT 9999 SCT027 18/10 Q1005
Pressure 29.68 in
Visibility 6.2 miles
Clouds Scattered Clouds 2700 ft
Heat Index 76 °F
Dew Point 58 °F
Humidity 61%
Rainfall 0.00 in
Snow Depth Not available.
UV 4 out of 12
Pollen Not available.
Air Quality Not available.
Flu Activity Not available.
METAR ESSB 280920Z 24014KT 9999 SCT027 18/10 Q1005

10-Day Weather Forecast

×

Almanac

Astronomy

Aug. 28, 2015 Rise Set
Actual Time
Civil Twilight
Nautical Twilight
Astronomical Twilight
Moon
Length of Visible Light
Length of Day
Tomorrow will be .
, % of the Moon is Illuminated

Today's Extremes

Country Highs Country Lows

Community

WunderPhotos

Upload Photos

1,850,352 photos uploaded!

WunderBlogs® & News

Nearby

Air Quality

  Air Quality AQ Index Pollutant
Not available.

Snow Depth

Station Depth Elevation

Earthquake Activity

City Distance Mag. Time & Date
Minimum magnitude displayed is 2.5.

Coastal Water Temperatures

Place Temperature

Stations

Nearby Weather Stations

Station Location Temp. Windchill Dew Point Humidity Wind Precip. Elev Updated Type